sensor_id;sensor_type;location;lat;lon;timestamp;P1;durP1;ratioP1;P2;durP2;ratioP2
64868;SDS011;51349;52.424;10.840;2023-12-20T00:04:24;5.37;;;4.87;;
64868;SDS011;51349;52.424;10.840;2023-12-20T00:09:25;4.57;;;4.17;;
64868;SDS011;51349;52.424;10.840;2023-12-20T00:14:25;4.03;;;3.63;;
64868;SDS011;51349;52.424;10.840;2023-12-20T00:19:26;3.30;;;3.10;;
64868;SDS011;51349;52.424;10.840;2023-12-20T00:24:27;2.97;;;2.77;;
64868;SDS011;51349;52.424;10.840;2023-12-20T00:29:27;2.60;;;2.30;;
64868;SDS011;51349;52.424;10.840;2023-12-20T00:34:28;2.77;;;2.57;;
64868;SDS011;51349;52.424;10.840;2023-12-20T00:39:29;2.80;;;2.60;;
64868;SDS011;51349;52.424;10.840;2023-12-20T00:44:30;2.40;;;2.20;;
64868;SDS011;51349;52.424;10.840;2023-12-20T00:49:30;2.50;;;2.33;;
64868;SDS011;51349;52.424;10.840;2023-12-20T00:54:31;1.97;;;1.87;;
64868;SDS011;51349;52.424;10.840;2023-12-20T00:59:32;2.53;;;2.07;;
64868;SDS011;51349;52.424;10.840;2023-12-20T01:04:33;3.37;;;2.07;;
64868;SDS011;51349;52.424;10.840;2023-12-20T01:09:33;2.77;;;2.17;;
64868;SDS011;51349;52.424;10.840;2023-12-20T01:14:34;3.80;;;1.93;;
64868;SDS011;51349;52.424;10.840;2023-12-20T01:19:35;5.17;;;1.97;;
64868;SDS011;51349;52.424;10.840;2023-12-20T01:24:35;3.63;;;1.83;;
64868;SDS011;51349;52.424;10.840;2023-12-20T01:29:36;5.23;;;1.70;;
64868;SDS011;51349;52.424;10.840;2023-12-20T01:34:37;3.53;;;1.60;;
64868;SDS011;51349;52.424;10.840;2023-12-20T01:39:38;5.00;;;1.57;;
64868;SDS011;51349;52.424;10.840;2023-12-20T01:44:38;3.97;;;1.67;;
64868;SDS011;51349;52.424;10.840;2023-12-20T01:49:39;7.03;;;1.60;;
64868;SDS011;51349;52.424;10.840;2023-12-20T01:54:40;5.17;;;1.87;;
64868;SDS011;51349;52.424;10.840;2023-12-20T01:59:42;3.03;;;1.50;;
64868;SDS011;51349;52.424;10.840;2023-12-20T02:04:44;6.83;;;1.83;;
64868;SDS011;51349;52.424;10.840;2023-12-20T02:09:46;7.57;;;1.77;;
64868;SDS011;51349;52.424;10.840;2023-12-20T02:14:47;2.53;;;1.40;;
64868;SDS011;51349;52.424;10.840;2023-12-20T02:19:49;5.27;;;1.60;;
64868;SDS011;51349;52.424;10.840;2023-12-20T02:24:49;6.07;;;1.80;;
64868;SDS011;51349;52.424;10.840;2023-12-20T02:29:50;5.73;;;1.70;;
64868;SDS011;51349;52.424;10.840;2023-12-20T02:34:51;5.83;;;1.77;;
64868;SDS011;51349;52.424;10.840;2023-12-20T02:39:52;6.13;;;2.43;;
64868;SDS011;51349;52.424;10.840;2023-12-20T02:44:52;10.30;;;2.33;;
64868;SDS011;51349;52.424;10.840;2023-12-20T02:49:53;4.90;;;2.10;;
64868;SDS011;51349;52.424;10.840;2023-12-20T02:54:54;5.47;;;2.80;;
64868;SDS011;51349;52.424;10.840;2023-12-20T02:59:54;4.37;;;2.47;;
64868;SDS011;51349;52.424;10.840;2023-12-20T03:04:55;7.17;;;2.30;;
64868;SDS011;51349;52.424;10.840;2023-12-20T03:09:56;5.80;;;2.43;;
64868;SDS011;51349;52.424;10.840;2023-12-20T03:14:57;6.70;;;2.10;;
64868;SDS011;51349;52.424;10.840;2023-12-20T03:19:58;5.03;;;1.90;;
64868;SDS011;51349;52.424;10.840;2023-12-20T03:24:58;2.30;;;1.70;;
64868;SDS011;51349;52.424;10.840;2023-12-20T03:29:59;2.73;;;1.47;;
64868;SDS011;51349;52.424;10.840;2023-12-20T03:35:00;4.77;;;1.90;;
64868;SDS011;51349;52.424;10.840;2023-12-20T03:40:01;6.23;;;1.93;;
64868;SDS011;51349;52.424;10.840;2023-12-20T03:45:02;5.83;;;1.93;;
64868;SDS011;51349;52.424;10.840;2023-12-20T03:50:03;4.17;;;2.00;;
64868;SDS011;51349;52.424;10.840;2023-12-20T03:55:04;9.83;;;2.40;;
64868;SDS011;51349;52.424;10.840;2023-12-20T04:00:06;8.60;;;2.20;;
64868;SDS011;51349;52.424;10.840;2023-12-20T04:05:10;4.87;;;2.37;;
64868;SDS011;51349;52.424;10.840;2023-12-20T04:10:11;5.63;;;2.20;;
64868;SDS011;51349;52.424;10.840;2023-12-20T04:15:12;8.70;;;2.50;;
64868;SDS011;51349;52.424;10.840;2023-12-20T04:20:13;5.13;;;2.20;;
64868;SDS011;51349;52.424;10.840;2023-12-20T04:25:13;6.67;;;2.53;;
64868;SDS011;51349;52.424;10.840;2023-12-20T04:30:14;4.23;;;1.90;;
64868;SDS011;51349;52.424;10.840;2023-12-20T04:35:15;7.60;;;2.20;;
64868;SDS011;51349;52.424;10.840;2023-12-20T04:40:15;3.87;;;1.50;;
64868;SDS011;51349;52.424;10.840;2023-12-20T04:45:16;5.10;;;1.53;;
64868;SDS011;51349;52.424;10.840;2023-12-20T04:50:18;5.77;;;1.40;;
64868;SDS011;51349;52.424;10.840;2023-12-20T04:55:20;3.33;;;1.50;;
64868;SDS011;51349;52.424;10.840;2023-12-20T05:00:20;7.03;;;1.73;;
64868;SDS011;51349;52.424;10.840;2023-12-20T05:05:21;4.60;;;1.63;;
64868;SDS011;51349;52.424;10.840;2023-12-20T05:10:22;5.70;;;1.40;;
64868;SDS011;51349;52.424;10.840;2023-12-20T05:15:22;3.30;;;1.40;;
64868;SDS011;51349;52.424;10.840;2023-12-20T05:20:23;2.27;;;1.10;;
64868;SDS011;51349;52.424;10.840;2023-12-20T05:25:24;6.10;;;1.50;;
64868;SDS011;51349;52.424;10.840;2023-12-20T05:30:25;2.53;;;1.10;;
64868;SDS011;51349;52.424;10.840;2023-12-20T05:35:26;3.30;;;1.50;;
64868;SDS011;51349;52.424;10.840;2023-12-20T05:40:27;3.47;;;1.50;;
64868;SDS011;51349;52.424;10.840;2023-12-20T05:45:28;6.87;;;1.80;;
64868;SDS011;51349;52.424;10.840;2023-12-20T05:50:29;5.40;;;1.90;;
64868;SDS011;51349;52.424;10.840;2023-12-20T05:55:30;3.07;;;1.50;;
64868;SDS011;51349;52.424;10.840;2023-12-20T06:00:31;5.00;;;1.60;;
64868;SDS011;51349;52.424;10.840;2023-12-20T06:05:31;8.80;;;2.00;;
64868;SDS011;51349;52.424;10.840;2023-12-20T06:10:32;2.77;;;1.47;;
64868;SDS011;51349;52.424;10.840;2023-12-20T06:15:33;7.10;;;2.00;;
64868;SDS011;51349;52.424;10.840;2023-12-20T06:20:33;3.53;;;1.60;;
64868;SDS011;51349;52.424;10.840;2023-12-20T06:25:34;5.70;;;1.93;;
64868;SDS011;51349;52.424;10.840;2023-12-20T06:30:35;4.93;;;2.00;;
64868;SDS011;51349;52.424;10.840;2023-12-20T06:35:36;10.20;;;2.30;;
64868;SDS011;51349;52.424;10.840;2023-12-20T06:40:37;9.60;;;2.77;;
64868;SDS011;51349;52.424;10.840;2023-12-20T06:45:38;4.40;;;1.80;;
64868;SDS011;51349;52.424;10.840;2023-12-20T06:50:38;7.17;;;2.20;;
64868;SDS011;51349;52.424;10.840;2023-12-20T06:55:40;6.50;;;2.03;;
64868;SDS011;51349;52.424;10.840;2023-12-20T07:00:40;7.67;;;2.27;;
64868;SDS011;51349;52.424;10.840;2023-12-20T07:05:41;7.13;;;2.40;;
64868;SDS011;51349;52.424;10.840;2023-12-20T07:10:42;10.60;;;2.30;;
64868;SDS011;51349;52.424;10.840;2023-12-20T07:15:43;7.80;;;2.33;;
64868;SDS011;51349;52.424;10.840;2023-12-20T07:20:43;9.43;;;2.40;;
64868;SDS011;51349;52.424;10.840;2023-12-20T07:25:44;6.07;;;2.53;;
64868;SDS011;51349;52.424;10.840;2023-12-20T07:30:45;6.47;;;2.10;;
64868;SDS011;51349;52.424;10.840;2023-12-20T07:35:46;6.30;;;2.67;;
64868;SDS011;51349;52.424;10.840;2023-12-20T07:40:46;8.07;;;3.03;;
64868;SDS011;51349;52.424;10.840;2023-12-20T07:45:47;6.17;;;2.40;;
64868;SDS011;51349;52.424;10.840;2023-12-20T07:50:48;13.43;;;6.90;;
64868;SDS011;51349;52.424;10.840;2023-12-20T07:55:49;6.27;;;2.90;;
64868;SDS011;51349;52.424;10.840;2023-12-20T08:00:50;8.50;;;2.77;;
64868;SDS011;51349;52.424;10.840;2023-12-20T08:05:50;9.53;;;2.90;;
64868;SDS011;51349;52.424;10.840;2023-12-20T08:10:51;4.00;;;1.77;;
64868;SDS011;51349;52.424;10.840;2023-12-20T08:15:52;6.73;;;2.80;;
64868;SDS011;51349;52.424;10.840;2023-12-20T08:20:53;8.83;;;2.63;;
64868;SDS011;51349;52.424;10.840;2023-12-20T08:25:54;5.87;;;2.77;;
64868;SDS011;51349;52.424;10.840;2023-12-20T08:30:55;6.60;;;2.80;;
64868;SDS011;51349;52.424;10.840;2023-12-20T08:35:56;5.77;;;2.50;;
64868;SDS011;51349;52.424;10.840;2023-12-20T08:40:56;5.50;;;2.77;;
64868;SDS011;51349;52.424;10.840;2023-12-20T08:45:57;8.93;;;3.93;;
64868;SDS011;51349;52.424;10.840;2023-12-20T08:50:58;11.73;;;3.43;;
64868;SDS011;51349;52.424;10.840;2023-12-20T08:55:59;3.27;;;2.40;;
64868;SDS011;51349;52.424;10.840;2023-12-20T09:01:01;4.77;;;2.00;;
64868;SDS011;51349;52.424;10.840;2023-12-20T09:06:02;4.90;;;2.20;;
64868;SDS011;51349;52.424;10.840;2023-12-20T09:11:03;11.37;;;2.97;;
64868;SDS011;51349;52.424;10.840;2023-12-20T09:16:04;10.70;;;2.73;;
64868;SDS011;51349;52.424;10.840;2023-12-20T09:21:05;8.03;;;2.30;;
64868;SDS011;51349;52.424;10.840;2023-12-20T09:26:06;9.77;;;2.77;;
64868;SDS011;51349;52.424;10.840;2023-12-20T09:31:07;9.97;;;3.20;;
64868;SDS011;51349;52.424;10.840;2023-12-20T09:36:07;7.40;;;2.90;;
64868;SDS011;51349;52.424;10.840;2023-12-20T09:41:08;7.67;;;2.97;;
64868;SDS011;51349;52.424;10.840;2023-12-20T09:46:09;6.63;;;2.60;;
64868;SDS011;51349;52.424;10.840;2023-12-20T09:51:16;9.30;;;3.10;;
64868;SDS011;51349;52.424;10.840;2023-12-20T09:56:17;7.83;;;2.57;;
64868;SDS011;51349;52.424;10.840;2023-12-20T10:01:18;13.77;;;6.87;;
64868;SDS011;51349;52.424;10.840;2023-12-20T10:06:19;7.27;;;3.37;;
64868;SDS011;51349;52.424;10.840;2023-12-20T10:11:20;6.87;;;3.13;;
64868;SDS011;51349;52.424;10.840;2023-12-20T10:16:24;4.57;;;2.90;;
64868;SDS011;51349;52.424;10.840;2023-12-20T10:21:25;3.87;;;2.17;;
64868;SDS011;51349;52.424;10.840;2023-12-20T10:26:27;5.50;;;2.60;;
64868;SDS011;51349;52.424;10.840;2023-12-20T10:31:30;5.40;;;2.70;;
64868;SDS011;51349;52.424;10.840;2023-12-20T10:36:32;3.57;;;2.50;;
64868;SDS011;51349;52.424;10.840;2023-12-20T10:41:33;6.77;;;2.40;;
64868;SDS011;51349;52.424;10.840;2023-12-20T10:46:35;8.40;;;2.67;;
64868;SDS011;51349;52.424;10.840;2023-12-20T10:51:37;6.33;;;2.90;;
64868;SDS011;51349;52.424;10.840;2023-12-20T10:56:39;6.13;;;3.07;;
64868;SDS011;51349;52.424;10.840;2023-12-20T11:01:40;5.80;;;2.60;;
64868;SDS011;51349;52.424;10.840;2023-12-20T11:17:15;8.20;;;2.70;;
64868;SDS011;51349;52.424;10.840;2023-12-20T11:22:21;5.80;;;2.63;;
64868;SDS011;51349;52.424;10.840;2023-12-20T11:27:24;8.67;;;2.60;;
64868;SDS011;51349;52.424;10.840;2023-12-20T11:37:35;3.50;;;2.40;;
64868;SDS011;51349;52.424;10.840;2023-12-20T11:42:50;4.90;;;2.70;;
64868;SDS011;51349;52.424;10.840;2023-12-20T11:47:51;5.97;;;3.03;;
64868;SDS011;51349;52.424;10.840;2023-12-20T11:52:55;6.57;;;2.50;;
64868;SDS011;51349;52.424;10.840;2023-12-20T11:57:58;7.40;;;3.23;;
64868;SDS011;51349;52.424;10.840;2023-12-20T12:02:59;5.13;;;3.00;;
64868;SDS011;51349;52.424;10.840;2023-12-20T12:08:02;4.40;;;2.40;;
64868;SDS011;51349;52.424;10.840;2023-12-20T12:13:03;6.47;;;2.60;;
64868;SDS011;51349;52.424;10.840;2023-12-20T12:18:04;5.00;;;2.47;;
64868;SDS011;51349;52.424;10.840;2023-12-20T12:23:05;2.03;;;1.30;;
64868;SDS011;51349;52.424;10.840;2023-12-20T12:28:07;1.20;;;1.03;;
64868;SDS011;51349;52.424;10.840;2023-12-20T12:33:07;1.03;;;0.83;;
64868;SDS011;51349;52.424;10.840;2023-12-20T12:38:08;0.80;;;0.60;;
64868;SDS011;51349;52.424;10.840;2023-12-20T12:43:09;2.80;;;0.90;;
64868;SDS011;51349;52.424;10.840;2023-12-20T12:48:10;1.60;;;0.90;;
64868;SDS011;51349;52.424;10.840;2023-12-20T12:53:10;2.33;;;0.90;;
64868;SDS011;51349;52.424;10.840;2023-12-20T12:58:11;1.73;;;1.30;;
64868;SDS011;51349;52.424;10.840;2023-12-20T13:03:12;0.90;;;0.90;;
64868;SDS011;51349;52.424;10.840;2023-12-20T13:08:13;1.47;;;1.00;;
64868;SDS011;51349;52.424;10.840;2023-12-20T13:13:14;2.87;;;1.43;;
64868;SDS011;51349;52.424;10.840;2023-12-20T13:18:15;3.57;;;1.73;;
64868;SDS011;51349;52.424;10.840;2023-12-20T13:23:18;3.70;;;2.00;;
64868;SDS011;51349;52.424;10.840;2023-12-20T13:28:19;4.33;;;1.80;;
64868;SDS011;51349;52.424;10.840;2023-12-20T13:33:19;5.93;;;2.10;;
64868;SDS011;51349;52.424;10.840;2023-12-20T13:38:20;4.30;;;1.67;;
64868;SDS011;51349;52.424;10.840;2023-12-20T13:43:21;1.47;;;1.37;;
64868;SDS011;51349;52.424;10.840;2023-12-20T13:48:22;2.07;;;1.70;;
64868;SDS011;51349;52.424;10.840;2023-12-20T13:53:23;3.80;;;1.47;;
64868;SDS011;51349;52.424;10.840;2023-12-20T13:58:24;4.90;;;3.90;;
64868;SDS011;51349;52.424;10.840;2023-12-20T14:03:25;1.83;;;1.43;;
64868;SDS011;51349;52.424;10.840;2023-12-20T14:08:25;6.47;;;2.00;;
64868;SDS011;51349;52.424;10.840;2023-12-20T14:13:27;4.07;;;1.70;;
64868;SDS011;51349;52.424;10.840;2023-12-20T14:18:27;2.10;;;1.37;;
64868;SDS011;51349;52.424;10.840;2023-12-20T14:23:30;2.80;;;1.33;;
64868;SDS011;51349;52.424;10.840;2023-12-20T14:28:31;6.27;;;2.00;;
64868;SDS011;51349;52.424;10.840;2023-12-20T14:33:31;4.10;;;1.73;;
64868;SDS011;51349;52.424;10.840;2023-12-20T14:38:32;3.83;;;1.50;;
64868;SDS011;51349;52.424;10.840;2023-12-20T14:43:33;7.80;;;2.00;;
64868;SDS011;51349;52.424;10.840;2023-12-20T14:48:34;4.37;;;1.63;;
64868;SDS011;51349;52.424;10.840;2023-12-20T14:53:34;5.03;;;1.97;;
64868;SDS011;51349;52.424;10.840;2023-12-20T14:58:37;4.27;;;2.23;;
64868;SDS011;51349;52.424;10.840;2023-12-20T15:03:38;4.30;;;1.20;;
64868;SDS011;51349;52.424;10.840;2023-12-20T15:08:40;4.27;;;1.40;;
64868;SDS011;51349;52.424;10.840;2023-12-20T15:13:41;3.40;;;1.10;;
64868;SDS011;51349;52.424;10.840;2023-12-20T15:18:42;4.33;;;1.40;;
64868;SDS011;51349;52.424;10.840;2023-12-20T15:23:43;2.50;;;1.20;;
64868;SDS011;51349;52.424;10.840;2023-12-20T15:28:52;4.77;;;1.50;;
64868;SDS011;51349;52.424;10.840;2023-12-20T15:33:54;4.37;;;1.60;;
64868;SDS011;51349;52.424;10.840;2023-12-20T15:38:55;5.83;;;1.80;;
64868;SDS011;51349;52.424;10.840;2023-12-20T15:43:56;22.53;;;7.87;;
64868;SDS011;51349;52.424;10.840;2023-12-20T15:48:56;12.77;;;4.40;;
64868;SDS011;51349;52.424;10.840;2023-12-20T15:53:57;20.03;;;10.10;;
64868;SDS011;51349;52.424;10.840;2023-12-20T15:58:58;19.43;;;8.03;;
64868;SDS011;51349;52.424;10.840;2023-12-20T16:03:59;10.53;;;5.47;;
64868;SDS011;51349;52.424;10.840;2023-12-20T16:09:01;6.03;;;3.17;;
64868;SDS011;51349;52.424;10.840;2023-12-20T16:14:01;12.47;;;5.40;;
64868;SDS011;51349;52.424;10.840;2023-12-20T16:19:02;8.77;;;3.90;;
64868;SDS011;51349;52.424;10.840;2023-12-20T16:24:03;7.67;;;3.70;;
64868;SDS011;51349;52.424;10.840;2023-12-20T16:29:04;7.60;;;2.80;;
64868;SDS011;51349;52.424;10.840;2023-12-20T16:34:05;9.03;;;2.60;;
64868;SDS011;51349;52.424;10.840;2023-12-20T16:39:05;8.70;;;3.07;;
64868;SDS011;51349;52.424;10.840;2023-12-20T16:44:06;7.30;;;3.77;;
64868;SDS011;51349;52.424;10.840;2023-12-20T16:49:07;13.67;;;6.60;;
64868;SDS011;51349;52.424;10.840;2023-12-20T16:54:08;4.93;;;1.90;;
64868;SDS011;51349;52.424;10.840;2023-12-20T16:59:08;7.80;;;3.77;;
64868;SDS011;51349;52.424;10.840;2023-12-20T17:04:09;14.20;;;6.40;;
64868;SDS011;51349;52.424;10.840;2023-12-20T17:09:10;17.67;;;7.13;;
64868;SDS011;51349;52.424;10.840;2023-12-20T17:14:11;10.33;;;4.33;;
64868;SDS011;51349;52.424;10.840;2023-12-20T17:19:13;9.80;;;3.90;;
64868;SDS011;51349;52.424;10.840;2023-12-20T17:24:14;9.37;;;3.53;;
64868;SDS011;51349;52.424;10.840;2023-12-20T17:29:14;5.93;;;2.80;;
64868;SDS011;51349;52.424;10.840;2023-12-20T17:34:15;5.67;;;3.17;;
64868;SDS011;51349;52.424;10.840;2023-12-20T17:39:16;5.73;;;2.13;;
64868;SDS011;51349;52.424;10.840;2023-12-20T17:44:17;12.27;;;4.43;;
64868;SDS011;51349;52.424;10.840;2023-12-20T17:49:18;2.50;;;1.70;;
64868;SDS011;51349;52.424;10.840;2023-12-20T17:54:19;8.90;;;3.50;;
64868;SDS011;51349;52.424;10.840;2023-12-20T17:59:19;11.40;;;5.30;;
64868;SDS011;51349;52.424;10.840;2023-12-20T18:04:20;4.70;;;2.30;;
64868;SDS011;51349;52.424;10.840;2023-12-20T18:09:22;4.60;;;2.27;;
64868;SDS011;51349;52.424;10.840;2023-12-20T18:14:23;7.43;;;4.13;;
64868;SDS011;51349;52.424;10.840;2023-12-20T18:19:25;5.27;;;3.13;;
64868;SDS011;51349;52.424;10.840;2023-12-20T18:24:25;3.73;;;2.33;;
64868;SDS011;51349;52.424;10.840;2023-12-20T18:29:26;7.73;;;4.10;;
64868;SDS011;51349;52.424;10.840;2023-12-20T18:34:27;11.03;;;4.83;;
64868;SDS011;51349;52.424;10.840;2023-12-20T18:39:29;6.07;;;2.67;;
64868;SDS011;51349;52.424;10.840;2023-12-20T18:44:30;11.10;;;4.60;;
64868;SDS011;51349;52.424;10.840;2023-12-20T18:49:31;4.77;;;2.20;;
64868;SDS011;51349;52.424;10.840;2023-12-20T18:54:33;1.97;;;1.20;;
64868;SDS011;51349;52.424;10.840;2023-12-20T18:59:33;4.13;;;1.50;;
64868;SDS011;51349;52.424;10.840;2023-12-20T19:04:34;3.63;;;1.60;;
64868;SDS011;51349;52.424;10.840;2023-12-20T19:09:35;3.70;;;1.57;;
64868;SDS011;51349;52.424;10.840;2023-12-20T19:14:35;2.20;;;1.13;;
64868;SDS011;51349;52.424;10.840;2023-12-20T19:19:36;1.73;;;1.10;;
64868;SDS011;51349;52.424;10.840;2023-12-20T19:24:37;3.63;;;1.23;;
64868;SDS011;51349;52.424;10.840;2023-12-20T19:29:38;3.13;;;1.10;;
64868;SDS011;51349;52.424;10.840;2023-12-20T19:34:39;2.33;;;1.10;;
64868;SDS011;51349;52.424;10.840;2023-12-20T19:39:39;5.63;;;1.30;;
64868;SDS011;51349;52.424;10.840;2023-12-20T19:44:43;2.30;;;1.23;;
64868;SDS011;51349;52.424;10.840;2023-12-20T19:49:44;4.80;;;1.37;;
64868;SDS011;51349;52.424;10.840;2023-12-20T19:54:45;3.63;;;1.30;;
64868;SDS011;51349;52.424;10.840;2023-12-20T19:59:45;1.70;;;1.20;;
64868;SDS011;51349;52.424;10.840;2023-12-20T20:04:46;1.20;;;1.10;;
64868;SDS011;51349;52.424;10.840;2023-12-20T20:09:47;1.97;;;1.30;;
64868;SDS011;51349;52.424;10.840;2023-12-20T20:14:48;4.17;;;1.80;;
64868;SDS011;51349;52.424;10.840;2023-12-20T20:19:48;5.03;;;2.10;;
64868;SDS011;51349;52.424;10.840;2023-12-20T20:24:49;3.17;;;2.13;;
64868;SDS011;51349;52.424;10.840;2023-12-20T20:29:53;3.87;;;2.70;;
64868;SDS011;51349;52.424;10.840;2023-12-20T20:34:55;5.00;;;3.30;;
64868;SDS011;51349;52.424;10.840;2023-12-20T20:39:58;4.33;;;2.60;;
64868;SDS011;51349;52.424;10.840;2023-12-20T20:45:00;3.60;;;2.97;;
64868;SDS011;51349;52.424;10.840;2023-12-20T20:50:00;6.07;;;3.20;;
64868;SDS011;51349;52.424;10.840;2023-12-20T20:55:01;4.30;;;2.87;;
64868;SDS011;51349;52.424;10.840;2023-12-20T21:00:02;5.63;;;3.70;;
64868;SDS011;51349;52.424;10.840;2023-12-20T21:05:04;3.87;;;3.13;;
64868;SDS011;51349;52.424;10.840;2023-12-20T21:10:05;4.47;;;3.27;;
64868;SDS011;51349;52.424;10.840;2023-12-20T21:15:07;6.43;;;3.70;;
64868;SDS011;51349;52.424;10.840;2023-12-20T21:20:08;9.33;;;4.60;;
64868;SDS011;51349;52.424;10.840;2023-12-20T21:25:10;7.40;;;3.93;;
64868;SDS011;51349;52.424;10.840;2023-12-20T21:30:11;6.73;;;4.27;;
64868;SDS011;51349;52.424;10.840;2023-12-20T21:35:12;12.60;;;6.17;;
64868;SDS011;51349;52.424;10.840;2023-12-20T21:40:13;10.50;;;5.40;;
64868;SDS011;51349;52.424;10.840;2023-12-20T21:45:14;5.90;;;4.13;;
64868;SDS011;51349;52.424;10.840;2023-12-20T21:50:14;9.40;;;6.20;;
64868;SDS011;51349;52.424;10.840;2023-12-20T21:55:16;9.70;;;5.57;;
64868;SDS011;51349;52.424;10.840;2023-12-20T22:00:16;8.43;;;6.17;;
64868;SDS011;51349;52.424;10.840;2023-12-20T22:05:17;14.03;;;7.27;;
64868;SDS011;51349;52.424;10.840;2023-12-20T22:10:18;9.97;;;6.83;;
64868;SDS011;51349;52.424;10.840;2023-12-20T22:15:19;8.13;;;6.63;;
64868;SDS011;51349;52.424;10.840;2023-12-20T22:20:20;7.23;;;6.13;;
64868;SDS011;51349;52.424;10.840;2023-12-20T22:25:21;10.77;;;6.70;;
64868;SDS011;51349;52.424;10.840;2023-12-20T22:30:21;5.67;;;4.73;;
64868;SDS011;51349;52.424;10.840;2023-12-20T22:35:22;6.57;;;5.27;;
64868;SDS011;51349;52.424;10.840;2023-12-20T22:40:23;9.03;;;5.63;;
64868;SDS011;51349;52.424;10.840;2023-12-20T22:45:23;6.37;;;5.60;;
64868;SDS011;51349;52.424;10.840;2023-12-20T22:50:24;6.67;;;5.33;;
64868;SDS011;51349;52.424;10.840;2023-12-20T22:55:25;5.80;;;5.23;;
64868;SDS011;51349;52.424;10.840;2023-12-20T23:00:26;5.70;;;4.10;;
64868;SDS011;51349;52.424;10.840;2023-12-20T23:05:27;4.60;;;4.00;;
64868;SDS011;51349;52.424;10.840;2023-12-20T23:10:27;4.37;;;3.97;;
64868;SDS011;51349;52.424;10.840;2023-12-20T23:15:30;4.70;;;4.20;;
64868;SDS011;51349;52.424;10.840;2023-12-20T23:20:30;6.43;;;4.10;;
64868;SDS011;51349;52.424;10.840;2023-12-20T23:25:31;4.23;;;3.83;;
64868;SDS011;51349;52.424;10.840;2023-12-20T23:30:33;3.43;;;3.17;;
64868;SDS011;51349;52.424;10.840;2023-12-20T23:35:33;3.57;;;3.20;;
64868;SDS011;51349;52.424;10.840;2023-12-20T23:40:34;4.67;;;3.73;;
64868;SDS011;51349;52.424;10.840;2023-12-20T23:45:35;4.73;;;3.80;;
64868;SDS011;51349;52.424;10.840;2023-12-20T23:50:36;3.87;;;3.50;;
64868;SDS011;51349;52.424;10.840;2023-12-20T23:55:36;3.53;;;3.00;;
